Time;durP1;ratioP1;P1;durP2;ratioP2;P2;SDS_P1;SDS_P2;PMS_P1;PMS_P2;Temp;Humidity;BMP_temperature;BMP_pressure;BME280_temperature;BME280_humidity;BME280_pressure;Samples;Min_cycle;Max_cycle;Signal;HPM_P1;HPM_P2
2021/07/24 00:01:30;;;;;;;11.07;9.83;;;16.70;99.90;;;;;;4999717;28;20522;-56
2021/07/24 00:03:57;;;;;;;12.40;11.00;;;16.60;99.90;;;;;;5001960;28;20526;-56
2021/07/24 00:06:24;;;;;;;13.40;11.13;;;16.50;99.90;;;;;;5018856;28;20456;-55
2021/07/24 00:08:51;;;;;;;12.00;10.57;;;16.50;99.90;;;;;;5019800;28;20873;-56
2021/07/24 00:11:18;;;;;;;12.07;10.17;;;16.50;99.90;;;;;;5019623;28;20491;-54
2021/07/24 00:13:46;;;;;;;11.10;9.93;;;16.40;99.90;;;;;;5019564;28;20464;-53
2021/07/24 00:16:14;;;;;;;14.80;9.77;;;16.40;99.90;;;;;;5020026;28;20880;-52
2021/07/24 00:18:41;;;;;;;13.47;10.37;;;16.40;99.90;;;;;;5019869;28;20483;-54
2021/07/24 00:21:08;;;;;;;12.30;10.10;;;16.40;99.90;;;;;;5019194;28;20474;-55
2021/07/24 00:23:35;;;;;;;13.30;10.10;;;16.40;99.90;;;;;;5019092;28;20535;-56
2021/07/24 00:26:03;;;;;;;10.40;9.40;;;16.30;99.90;;;;;;5019225;28;20493;-57
2021/07/24 00:28:30;;;;;;;9.90;8.97;;;16.30;99.90;;;;;;5019358;28;20492;-55
2021/07/24 00:30:57;;;;;;;13.03;9.50;;;16.20;99.90;;;;;;5018695;28;20897;-57
2021/07/24 00:33:29;;;;;;;10.63;9.73;;;16.20;99.90;;;;;;5019776;28;20460;-57
2021/07/24 00:35:56;;;;;;;12.27;9.53;;;16.10;99.90;;;;;;5019777;28;20892;-57
2021/07/24 00:38:25;;;;;;;10.37;9.07;;;16.10;99.90;;;;;;5019170;28;20452;-54
2021/07/24 00:40:55;;;;;;;10.57;9.60;;;16.10;99.90;;;;;;5019328;28;20491;-56
2021/07/24 00:43:28;;;;;;;10.40;9.33;;;16.10;99.90;;;;;;5019419;28;20756;-56
2021/07/24 00:45:56;;;;;;;11.23;10.13;;;16.00;99.90;;;;;;5018787;28;20467;-57
2021/07/24 00:48:25;;;;;;;12.20;9.80;;;16.00;99.90;;;;;;5019107;28;20495;-55
2021/07/24 00:50:57;;;;;;;10.73;9.83;;;16.00;99.90;;;;;;5018713;28;20475;-57
2021/07/24 00:53:33;;;;;;;11.13;9.30;;;16.00;99.90;;;;;;5019314;28;20550;-55
2021/07/24 00:56:01;;;;;;;10.77;9.77;;;16.00;99.90;;;;;;5018906;28;20900;-56
2021/07/24 00:58:30;;;;;;;10.67;9.57;;;15.90;99.90;;;;;;5019235;28;20518;-55
2021/07/24 01:00:58;;;;;;;13.20;11.50;;;15.90;99.90;;;;;;5018651;28;20519;-55
2021/07/24 01:03:25;;;;;;;10.87;9.73;;;15.90;99.90;;;;;;5019000;28;20466;-56
2021/07/24 01:05:57;;;;;;;11.43;10.33;;;15.90;99.90;;;;;;5004794;28;20476;-56
2021/07/24 01:08:25;;;;;;;11.27;9.67;;;15.90;99.90;;;;;;5006925;28;20495;-50
2021/07/24 01:10:53;;;;;;;10.60;9.60;;;15.70;99.90;;;;;;5011176;28;20457;-57
2021/07/24 01:13:21;;;;;;;12.83;9.27;;;15.70;99.90;;;;;;4998583;28;20471;-55
2021/07/24 01:15:50;;;;;;;9.83;8.97;;;15.70;99.90;;;;;;5010674;28;20567;-53
2021/07/24 01:18:17;;;;;;;10.43;9.33;;;15.60;99.90;;;;;;5018253;28;20460;-53
2021/07/24 01:20:45;;;;;;;12.07;9.53;;;15.60;99.90;;;;;;5018705;28;20464;-56
2021/07/24 01:23:17;;;;;;;12.47;10.17;;;15.60;99.90;;;;;;5015321;28;20453;-55
2021/07/24 01:25:46;;;;;;;10.13;9.23;;;15.40;99.90;;;;;;4998731;28;20468;-54
2021/07/24 01:28:13;;;;;;;10.83;9.00;;;15.40;99.90;;;;;;4998702;28;20496;-55
2021/07/24 01:30:42;;;;;;;10.80;9.80;;;15.40;99.90;;;;;;5001264;28;20479;-53
2021/07/24 01:33:10;;;;;;;10.13;9.27;;;15.30;99.90;;;;;;5017062;28;20480;-54
2021/07/24 01:35:37;;;;;;;11.13;9.83;;;15.30;99.90;;;;;;5016540;28;20867;-53
2021/07/24 01:38:08;;;;;;;14.17;9.70;;;15.30;99.90;;;;;;5017589;28;20827;-57
2021/07/24 01:40:39;;;;;;;10.63;8.93;;;15.30;99.90;;;;;;5018130;28;20455;-57
2021/07/24 01:43:06;;;;;;;10.10;9.10;;;15.20;99.90;;;;;;5017732;28;20752;-57
2021/07/24 01:45:33;;;;;;;11.17;9.90;;;15.20;99.90;;;;;;5017747;28;20467;-57
2021/07/24 01:48:02;;;;;;;10.20;9.20;;;15.20;99.90;;;;;;5017883;28;20499;-57
2021/07/24 01:53:11;;;;;;;10.40;9.37;;;15.20;99.90;;;;;;4974665;28;20951;-54
2021/07/24 01:55:44;;;;;;;10.60;9.47;;;15.20;99.90;;;;;;5017469;28;20456;-56
2021/07/24 01:58:14;;;;;;;10.57;9.67;;;15.20;99.90;;;;;;5017362;28;20460;-53
2021/07/24 02:00:43;;;;;;;11.67;9.97;;;15.20;99.90;;;;;;5017787;28;20586;-53
2021/07/24 02:42:32;;;;;;;12.57;11.27;;;14.70;99.90;;;;;;4995078;28;20449;-49
2021/07/24 02:44:59;;;;;;;13.23;11.93;;;14.60;99.90;;;;;;4997992;28;20461;-49
2021/07/24 02:47:26;;;;;;;12.10;10.70;;;14.60;99.90;;;;;;4997313;28;20499;-48
2021/07/24 02:49:53;;;;;;;11.90;10.77;;;14.70;99.90;;;;;;4997607;28;20515;-48
2021/07/24 02:52:20;;;;;;;12.27;10.97;;;14.60;99.90;;;;;;4997997;28;20893;-51
2021/07/24 02:54:47;;;;;;;12.23;10.30;;;14.60;99.90;;;;;;5001763;28;20465;-52
2021/07/24 02:57:15;;;;;;;11.90;10.77;;;14.60;99.90;;;;;;5001864;28;20483;-53
2021/07/24 03:32:51;;;;;;;13.30;11.90;;;14.50;99.90;;;;;;2934331;23;20500;-57
2021/07/24 03:35:18;;;;;;;13.53;12.13;;;14.50;99.90;;;;;;5020386;28;20467;-53
2021/07/24 03:37:45;;;;;;;13.43;12.13;;;14.40;99.90;;;;;;5020499;28;20514;-54
2021/07/24 03:40:13;;;;;;;13.80;12.47;;;14.40;99.90;;;;;;5001269;28;20464;-52
2021/07/24 03:42:40;;;;;;;12.47;11.20;;;14.40;99.90;;;;;;5000583;28;20465;-51
2021/07/24 03:45:08;;;;;;;14.57;12.90;;;14.40;99.90;;;;;;5000180;28;20504;-54
2021/07/24 03:47:35;;;;;;;12.47;11.37;;;14.40;99.90;;;;;;5000636;28;20945;-57
2021/07/24 03:50:04;;;;;;;13.10;11.80;;;14.40;99.90;;;;;;5000785;28;20531;-55
2021/07/24 03:52:31;;;;;;;12.60;11.30;;;14.40;99.90;;;;;;5000416;28;20786;-51
2021/07/24 03:54:58;;;;;;;12.77;11.47;;;14.40;99.90;;;;;;5000088;28;20465;-55
2021/07/24 03:57:25;;;;;;;15.23;12.50;;;14.40;99.90;;;;;;5000392;28;20508;-57
2021/07/24 03:59:52;;;;;;;14.43;12.93;;;14.40;99.90;;;;;;5000217;28;20465;-58
2021/07/24 04:02:24;;;;;;;15.10;13.60;;;14.50;99.90;;;;;;5000521;28;20773;-56
2021/07/24 04:04:52;;;;;;;13.87;12.40;;;14.50;99.90;;;;;;5006254;28;20987;-57
2021/07/24 04:07:22;;;;;;;14.47;13.10;;;14.60;99.90;;;;;;5019635;28;20503;-56
2021/07/24 04:09:49;;;;;;;14.00;12.70;;;14.60;99.90;;;;;;5019506;28;20464;-58
2021/07/24 04:12:16;;;;;;;14.60;13.20;;;14.60;99.90;;;;;;5019932;28;20471;-58
2021/07/24 04:14:45;;;;;;;14.67;13.27;;;14.70;99.90;;;;;;5018989;28;20474;-55
2021/07/24 04:17:12;;;;;;;13.77;12.37;;;14.70;99.90;;;;;;5019513;28;20472;-51
2021/07/24 04:19:39;;;;;;;15.57;13.77;;;14.80;99.90;;;;;;5019775;28;20502;-57
2021/07/24 04:22:06;;;;;;;15.70;14.10;;;14.90;99.90;;;;;;5018989;28;20457;-54
2021/07/24 04:24:35;;;;;;;13.83;12.50;;;14.90;99.90;;;;;;5019172;28;20463;-54
2021/07/24 04:27:03;;;;;;;14.60;13.30;;;15.00;99.90;;;;;;5019528;28;20467;-55
2021/07/24 04:29:30;;;;;;;14.33;13.03;;;15.10;99.90;;;;;;5020623;28;20492;-53
2021/07/24 04:31:57;;;;;;;13.40;12.20;;;15.10;99.90;;;;;;5020330;28;20464;-56
2021/07/24 04:34:24;;;;;;;13.30;12.10;;;15.30;99.90;;;;;;5019682;28;20456;-57
2021/07/24 04:36:51;;;;;;;13.73;12.53;;;15.30;99.90;;;;;;5019370;28;20459;-58
2021/07/24 04:39:18;;;;;;;13.43;12.20;;;15.30;99.90;;;;;;5019328;28;20510;-56
2021/07/24 04:41:46;;;;;;;13.80;12.43;;;15.30;99.90;;;;;;5018807;28;20471;-54
2021/07/24 04:44:13;;;;;;;17.00;12.20;;;15.30;99.90;;;;;;5019297;28;20463;-53
2021/07/24 04:46:41;;;;;;;13.17;11.97;;;15.30;99.90;;;;;;5018775;28;20467;-49
2021/07/24 04:49:09;;;;;;;13.83;12.60;;;15.50;99.90;;;;;;5019172;28;20492;-57
2021/07/24 04:51:36;;;;;;;14.53;13.13;;;15.50;99.90;;;;;;5018695;28;20487;-56
2021/07/24 04:54:05;;;;;;;13.97;12.70;;;15.60;99.90;;;;;;5019111;28;20467;-57
2021/07/24 04:56:33;;;;;;;12.93;11.83;;;15.80;99.90;;;;;;5018695;28;20464;-58
2021/07/24 04:59:03;;;;;;;14.60;13.30;;;16.00;99.90;;;;;;5018901;28;20461;-58
2021/07/24 05:01:31;;;;;;;14.57;13.13;;;16.10;99.90;;;;;;5019009;28;20464;-55
2021/07/24 05:03:58;;;;;;;15.87;13.77;;;16.30;99.90;;;;;;5008352;28;20467;-58
2021/07/24 05:06:26;;;;;;;14.40;12.93;;;16.40;99.90;;;;;;5007166;28;20463;-57
2021/07/24 05:08:53;;;;;;;17.40;13.63;;;16.60;99.90;;;;;;5012238;28;20491;-55
2021/07/24 05:11:20;;;;;;;14.20;12.97;;;16.60;99.90;;;;;;4998704;28;20792;-52
2021/07/24 05:13:47;;;;;;;14.40;12.70;;;16.70;99.90;;;;;;5010133;28;20460;-55
2021/07/24 05:16:16;;;;;;;13.33;12.00;;;16.80;99.90;;;;;;5018293;28;20471;-54
2021/07/24 05:18:43;;;;;;;17.33;13.03;;;16.90;99.90;;;;;;5018430;28;20456;-54
2021/07/24 05:21:16;;;;;;;14.57;12.80;;;17.00;99.90;;;;;;5016020;28;20460;-55
2021/07/24 05:23:43;;;;;;;13.90;12.60;;;17.10;99.90;;;;;;4998920;28;20484;-56
2021/07/24 05:26:14;;;;;;;14.50;12.90;;;17.10;99.90;;;;;;4998947;28;20472;-51
2021/07/24 05:28:41;;;;;;;13.47;12.27;;;17.30;99.90;;;;;;4998674;28;20532;-55
2021/07/24 05:31:17;;;;;;;13.33;12.13;;;17.40;99.90;;;;;;4998230;28;20524;-53
2021/07/24 05:33:44;;;;;;;15.23;13.60;;;17.60;99.90;;;;;;4998280;28;20492;-57
2021/07/24 05:36:11;;;;;;;15.03;13.63;;;17.80;99.90;;;;;;4998677;28;20465;-56
2021/07/24 05:38:38;;;;;;;13.80;12.40;;;17.90;99.90;;;;;;5003936;28;20460;-53
2021/07/24 05:41:06;;;;;;;14.10;12.93;;;18.10;99.90;;;;;;5018373;28;20463;-54
2021/07/24 05:43:33;;;;;;;14.37;13.17;;;18.30;99.90;;;;;;5018260;28;20471;-56
2021/07/24 05:46:01;;;;;;;14.20;12.90;;;18.40;99.90;;;;;;5019044;28;20456;-54
2021/07/24 05:48:32;;;;;;;14.17;12.67;;;18.50;99.90;;;;;;5018378;28;20535;-58
2021/07/24 05:51:07;;;;;;;14.03;12.00;;;18.70;99.90;;;;;;5017995;28;20468;-56
2021/07/24 05:53:34;;;;;;;14.23;12.80;;;18.90;99.90;;;;;;5018104;28;20502;-58
2021/07/24 05:56:01;;;;;;;14.57;13.20;;;19.00;99.90;;;;;;5018781;28;20468;-58
2021/07/24 05:58:29;;;;;;;14.10;12.60;;;19.20;99.90;;;;;;5018264;28;20467;-54
2021/07/24 06:00:57;;;;;;;13.80;12.60;;;19.20;99.90;;;;;;5017823;28;20474;-55
2021/07/24 06:03:24;;;;;;;14.80;13.50;;;19.40;99.90;;;;;;5011628;28;20483;-56
2021/07/24 06:05:52;;;;;;;12.37;11.33;;;19.50;99.90;;;;;;5013646;28;20499;-55
2021/07/24 07:22:38;;;;;;;14.77;13.60;;;25.00;99.00;;;;;;4057042;23;20497;-58
2021/07/24 08:05:01;;;;;;;13.93;12.47;;;26.30;89.30;;;;;;4969558;28;20470;-58
2021/07/24 08:07:29;;;;;;;13.07;11.67;;;26.50;90.10;;;;;;4977383;28;20906;-57
2021/07/24 08:09:59;;;;;;;12.67;11.40;;;26.50;90.20;;;;;;4979397;28;20820;-56
2021/07/24 08:12:26;;;;;;;13.93;12.77;;;26.60;89.70;;;;;;4979899;28;20561;-56
2021/07/24 08:14:55;;;;;;;13.50;11.90;;;26.70;90.40;;;;;;4980118;28;20465;-57
2021/07/24 08:17:24;;;;;;;12.33;11.07;;;26.50;90.40;;;;;;4980020;28;20440;-58
2021/07/24 08:19:54;;;;;;;12.77;11.67;;;26.90;87.60;;;;;;4978137;28;20465;-57
2021/07/24 08:22:22;;;;;;;13.83;11.93;;;27.10;88.10;;;;;;4980464;28;20473;-57
2021/07/24 08:24:52;;;;;;;13.73;12.40;;;27.30;85.90;;;;;;4980866;28;20478;-58
2021/07/24 08:27:19;;;;;;;12.17;11.07;;;27.30;84.60;;;;;;4980192;28;20469;-56
2021/07/24 08:29:46;;;;;;;12.57;11.37;;;27.20;86.60;;;;;;4980555;28;20501;-56
2021/07/24 08:32:16;;;;;;;13.37;12.20;;;27.50;86.90;;;;;;4980228;28;20474;-56
2021/07/24 08:34:52;;;;;;;12.50;11.40;;;27.60;84.30;;;;;;4980405;28;20480;-57
2021/07/24 08:37:20;;;;;;;13.30;12.10;;;27.60;85.70;;;;;;4980049;28;20461;-58
2021/07/24 08:39:48;;;;;;;12.43;11.33;;;27.50;83.40;;;;;;4980159;28;20458;-57
2021/07/24 08:42:33;;;;;;;14.10;13.00;;;27.60;84.30;;;;;;4979398;28;20466;-58
2021/07/24 08:45:06;;;;;;;12.77;11.77;;;28.00;82.80;;;;;;4960943;29;20753;-56
2021/07/24 08:47:39;;;;;;;13.50;12.30;;;28.10;83.00;;;;;;4960502;29;20470;-55
2021/07/24 08:50:08;;;;;;;13.20;12.10;;;28.70;78.80;;;;;;4968456;28;20911;-58
2021/07/24 08:52:36;;;;;;;13.87;12.53;;;28.90;79.20;;;;;;4979238;28;20461;-58
2021/07/24 08:55:09;;;;;;;13.40;12.30;;;29.00;75.50;;;;;;4980049;28;20465;-58
2021/07/24 08:57:40;;;;;;;13.60;12.40;;;29.20;73.90;;;;;;4979111;28;20742;-58
2021/07/24 09:00:15;;;;;;;13.23;11.83;;;29.00;68.30;;;;;;4979825;28;20915;-57
2021/07/24 09:02:47;;;;;;;13.60;12.50;;;29.00;73.90;;;;;;4977648;28;20468;-58
2021/07/24 09:05:16;;;;;;;14.73;13.40;;;29.10;72.60;;;;;;4968042;28;20904;-58
2021/07/24 09:07:56;;;;;;;13.20;12.00;;;29.10;67.00;;;;;;4977817;28;20476;-55
2021/07/24 09:10:25;;;;;;;14.40;13.07;;;28.90;68.20;;;;;;4967779;28;20485;-56
2021/07/24 09:12:58;;;;;;;14.00;12.57;;;29.10;65.10;;;;;;4975403;28;20764;-57
2021/07/24 09:15:25;;;;;;;15.23;13.93;;;29.10;65.10;;;;;;4979272;28;20573;-55
2021/07/24 09:17:55;;;;;;;15.03;13.73;;;29.20;63.10;;;;;;4979011;28;20520;-56
2021/07/24 09:20:26;;;;;;;13.57;12.30;;;29.10;62.50;;;;;;4979479;28;20464;-57
2021/07/24 09:22:54;;;;;;;15.40;13.83;;;28.90;62.70;;;;;;4978372;28;20458;-57
2021/07/24 09:25:27;;;;;;;14.70;13.40;;;28.70;64.10;;;;;;4978508;28;20854;-56
2021/07/24 09:28:10;;;;;;;15.90;14.50;;;28.10;63.40;;;;;;4976764;28;20469;-53
2021/07/24 09:30:38;;;;;;;15.00;13.60;;;27.60;64.20;;;;;;4978656;28;20745;-56
2021/07/24 09:33:07;;;;;;;16.07;14.77;;;27.20;65.50;;;;;;4977512;28;20470;-58
2021/07/24 09:35:39;;;;;;;15.10;13.87;;;27.20;66.70;;;;;;4977976;28;20572;-57
2021/07/24 09:38:07;;;;;;;15.93;14.53;;;27.20;66.30;;;;;;4976473;28;20903;-58
2021/07/24 09:40:39;;;;;;;14.43;13.13;;;26.90;66.40;;;;;;4975105;28;20461;-58
2021/07/24 09:43:36;;;;;;;15.73;14.13;;;27.10;67.60;;;;;;4978007;28;20470;-57
2021/07/24 09:46:11;;;;;;;16.03;14.50;;;27.30;68.10;;;;;;4978301;28;20561;-58
2021/07/24 09:48:39;;;;;;;15.10;13.80;;;27.10;67.90;;;;;;4978007;28;20493;-57
2021/07/24 09:51:06;;;;;;;15.30;14.00;;;27.00;67.80;;;;;;4979100;28;20469;-55
2021/07/24 09:53:38;;;;;;;16.73;15.33;;;27.00;69.50;;;;;;4977784;28;20465;-57
2021/07/24 10:34:39;;;;;;;17.13;15.00;;;25.00;78.40;;;;;;4560684;23;20491;-57
2021/07/24 10:37:30;;;;;;;15.87;14.47;;;25.10;80.20;;;;;;4998887;28;20780;-56
2021/07/24 10:40:33;;;;;;;16.53;15.03;;;24.90;80.30;;;;;;5000134;28;20553;-57
2021/07/24 10:43:02;;;;;;;16.97;15.23;;;24.70;81.90;;;;;;5017627;28;20463;-49
2021/07/24 10:45:52;;;;;;;18.90;17.00;;;24.60;84.30;;;;;;5017321;28;20523;-53
2021/07/24 10:48:21;;;;;;;18.47;16.60;;;24.40;84.10;;;;;;5002248;28;20479;-53
2021/07/24 10:51:18;;;;;;;16.60;15.10;;;24.30;85.40;;;;;;4997459;28;20500;-57
2021/07/24 10:54:10;;;;;;;16.60;15.10;;;24.20;86.10;;;;;;5001490;28;20475;-56
2021/07/24 10:56:42;;;;;;;17.07;15.27;;;24.20;89.00;;;;;;5000374;28;20759;-57
2021/07/24 10:59:22;;;;;;;15.87;14.53;;;24.40;89.60;;;;;;4982144;28;20949;-55
2021/07/24 11:01:51;;;;;;;15.97;14.57;;;24.50;88.90;;;;;;4997426;28;20548;-58
2021/07/24 11:04:50;;;;;;;16.67;15.07;;;24.40;89.20;;;;;;4986773;28;20470;-54
2021/07/24 11:07:46;;;;;;;16.53;14.63;;;24.30;90.70;;;;;;4934736;29;20471;-55
2021/07/24 11:10:13;;;;;;;17.20;15.70;;;24.20;91.20;;;;;;4996212;28;20495;-54
2021/07/24 11:12:41;;;;;;;16.50;14.93;;;24.20;91.80;;;;;;4998640;28;20760;-56
2021/07/24 11:15:12;;;;;;;17.57;16.00;;;24.20;92.30;;;;;;5001303;28;20465;-56
2021/07/24 11:17:39;;;;;;;17.50;16.00;;;24.20;93.10;;;;;;5004686;28;20459;-53
2021/07/24 12:00:37;;;;;;;17.57;15.87;;;25.40;93.80;;;;;;3978532;23;20977;-58
2021/07/24 12:40:18;;;;;;;17.83;15.87;;;24.00;95.50;;;;;;5314205;23;20475;-55
2021/07/24 12:42:46;;;;;;;18.03;16.23;;;23.70;97.10;;;;;;4980950;28;20762;-54
2021/07/24 12:45:29;;;;;;;17.63;16.00;;;23.80;98.30;;;;;;4980004;28;20470;-53
2021/07/24 13:25:07;;;;;;;24.03;21.70;;;21.80;99.90;;;;;;4275153;23;20496;-60
2021/07/24 15:15:09;;;;;;;30.73;27.83;;;20.00;99.90;;;;;;5033248;23;20838;-64
2021/07/24 15:17:36;;;;;;;30.93;28.00;;;20.10;99.90;;;;;;4982175;28;20477;-64
2021/07/24 15:20:03;;;;;;;26.93;24.47;;;20.10;99.90;;;;;;4981665;28;20465;-63
2021/07/24 15:22:32;;;;;;;32.07;28.67;;;20.10;99.90;;;;;;4981394;28;20794;-64
2021/07/24 15:24:59;;;;;;;32.67;29.27;;;20.00;99.90;;;;;;4981677;28;20469;-63
2021/07/24 15:27:30;;;;;;;31.33;28.23;;;19.90;99.90;;;;;;4981272;28;20953;-63
2021/07/24 15:30:05;;;;;;;30.53;27.60;;;19.90;99.90;;;;;;4981235;28;20500;-65
2021/07/24 15:32:38;;;;;;;31.40;28.30;;;19.90;99.90;;;;;;4981786;28;20953;-65
2021/07/24 15:35:06;;;;;;;31.30;28.40;;;20.10;99.90;;;;;;4981339;28;20465;-65
2021/07/24 15:37:37;;;;;;;30.50;27.80;;;20.10;99.90;;;;;;4981200;28;21007;-65
2021/07/24 15:40:06;;;;;;;31.77;28.77;;;20.10;99.90;;;;;;4980754;28;20520;-65
2021/07/24 15:42:33;;;;;;;31.70;28.50;;;20.10;99.90;;;;;;4981130;28;20484;-65
2021/07/24 15:45:00;;;;;;;32.00;28.80;;;20.10;99.90;;;;;;4981239;28;20465;-64
2021/07/24 15:47:27;;;;;;;31.97;29.07;;;20.20;99.90;;;;;;4980828;28;20921;-64
2021/07/24 15:49:56;;;;;;;32.80;29.60;;;20.40;99.90;;;;;;4980632;28;20501;-64
2021/07/24 15:52:26;;;;;;;31.53;28.57;;;20.20;99.90;;;;;;4981189;28;20469;-64
2021/07/24 15:54:53;;;;;;;30.77;27.93;;;20.00;99.90;;;;;;4980720;28;20465;-64
2021/07/24 15:57:23;;;;;;;32.07;28.93;;;20.00;99.90;;;;;;4981251;28;20474;-64
2021/07/24 15:59:50;;;;;;;35.50;32.20;;;20.10;99.90;;;;;;4980363;28;20442;-63
2021/07/24 16:02:17;;;;;;;32.00;29.07;;;20.20;99.90;;;;;;4980742;28;20521;-63
2021/07/24 16:04:44;;;;;;;31.50;28.70;;;20.30;99.90;;;;;;4971662;28;20770;-63
2021/07/24 16:07:13;;;;;;;32.43;29.17;;;20.30;99.90;;;;;;4980245;28;20458;-63
2021/07/24 16:09:40;;;;;;;32.97;29.87;;;20.40;99.90;;;;;;4980656;28;20502;-63
2021/07/24 16:12:11;;;;;;;32.97;29.87;;;20.50;99.90;;;;;;4980715;28;20462;-62
2021/07/24 16:14:38;;;;;;;32.67;29.47;;;20.50;99.90;;;;;;4979750;28;20493;-62
2021/07/24 16:17:05;;;;;;;31.07;28.17;;;20.40;99.90;;;;;;4980707;28;20807;-63
2021/07/24 16:19:33;;;;;;;33.67;30.17;;;20.40;99.90;;;;;;4979870;28;20462;-62
2021/07/24 16:22:00;;;;;;;33.60;30.30;;;20.40;99.90;;;;;;4980278;28;20732;-62
2021/07/24 16:24:29;;;;;;;32.67;29.57;;;20.50;99.90;;;;;;4980563;28;20806;-62
2021/07/24 16:26:56;;;;;;;33.73;30.53;;;20.50;99.90;;;;;;4980523;28;20966;-62
2021/07/24 16:29:23;;;;;;;33.83;30.60;;;20.40;99.90;;;;;;4980555;28;20458;-62
2021/07/24 16:31:51;;;;;;;34.23;30.67;;;20.40;99.90;;;;;;4977470;28;20521;-62
2021/07/24 16:34:18;;;;;;;33.40;30.40;;;20.40;99.90;;;;;;4978989;28;20553;-62
2021/07/24 16:36:45;;;;;;;34.47;31.17;;;20.40;99.90;;;;;;4979647;28;20465;-62
2021/07/24 16:39:12;;;;;;;33.53;30.23;;;20.30;99.90;;;;;;4980033;28;20485;-61
2021/07/24 16:41:41;;;;;;;33.80;30.67;;;20.20;99.90;;;;;;4980148;28;20478;-61
2021/07/24 16:44:08;;;;;;;32.40;29.40;;;20.30;99.90;;;;;;4979990;28;20473;-61
2021/07/24 16:46:36;;;;;;;37.10;33.40;;;20.40;99.90;;;;;;4979389;28;20470;-61
2021/07/24 16:49:03;;;;;;;33.20;29.97;;;20.30;99.90;;;;;;4979963;28;20462;-61
2021/07/24 16:51:30;;;;;;;32.97;29.77;;;20.30;99.90;;;;;;4979694;28;21012;-61
2021/07/24 16:53:58;;;;;;;37.13;33.47;;;20.30;99.90;;;;;;4979857;28;20473;-61
2021/07/24 16:56:28;;;;;;;33.93;30.80;;;20.20;99.90;;;;;;4979353;28;20468;-61
2021/07/24 16:58:57;;;;;;;34.53;31.27;;;20.10;99.90;;;;;;4980256;28;20803;-61
2021/07/24 17:01:24;;;;;;;34.00;30.90;;;20.20;99.90;;;;;;4979534;28;20465;-61
2021/07/24 17:03:52;;;;;;;33.90;30.53;;;20.10;99.90;;;;;;4966281;28;20475;-61
2021/07/24 17:06:21;;;;;;;32.97;29.77;;;20.20;99.90;;;;;;4978946;28;20909;-61
2021/07/24 17:08:48;;;;;;;33.80;30.60;;;20.20;99.90;;;;;;4980823;28;20765;-61
2021/07/24 17:11:16;;;;;;;32.13;29.33;;;20.20;99.90;;;;;;4980509;28;20500;-61
2021/07/24 17:13:44;;;;;;;30.93;28.23;;;20.30;99.90;;;;;;4979597;28;20512;-61
2021/07/24 17:16:13;;;;;;;32.87;29.30;;;20.30;99.90;;;;;;4980028;28;20465;-61
2021/07/24 17:18:42;;;;;;;30.13;27.20;;;20.30;99.90;;;;;;4981287;28;20465;-61
2021/07/24 17:21:12;;;;;;;33.67;30.20;;;20.40;99.90;;;;;;4980277;28;20465;-61
2021/07/24 17:23:44;;;;;;;35.07;31.63;;;20.50;99.90;;;;;;4979679;28;20978;-60
2021/07/24 17:26:14;;;;;;;34.63;31.40;;;20.50;99.90;;;;;;4978806;28;20477;-60
2021/07/24 17:28:41;;;;;;;35.47;31.70;;;20.40;99.90;;;;;;4979286;28;20505;-60
2021/07/24 17:31:17;;;;;;;35.67;32.07;;;20.40;99.90;;;;;;4977672;28;20493;-60
2021/07/24 17:33:46;;;;;;;34.00;30.87;;;20.30;99.90;;;;;;4978280;28;20465;-60
2021/07/24 17:36:15;;;;;;;35.10;31.90;;;20.30;99.90;;;;;;4978970;28;20477;-60
2021/07/24 17:38:43;;;;;;;30.93;28.20;;;20.30;99.90;;;;;;4979425;28;20457;-60
2021/07/24 17:41:14;;;;;;;34.30;31.00;;;20.20;99.90;;;;;;4979183;28;20466;-60
2021/07/24 17:43:47;;;;;;;33.87;30.47;;;20.20;99.90;;;;;;4978774;28;20470;-60
2021/07/24 17:46:24;;;;;;;32.53;29.00;;;20.30;99.90;;;;;;4977992;28;20879;-60
2021/07/24 17:48:51;;;;;;;31.50;28.57;;;20.30;99.90;;;;;;4977789;28;20934;-60
2021/07/24 17:51:24;;;;;;;34.37;31.00;;;20.30;99.90;;;;;;4977410;28;20494;-60
2021/07/24 17:53:51;;;;;;;35.23;32.03;;;20.40;99.90;;;;;;4977380;28;20485;-60
2021/07/24 17:56:21;;;;;;;32.63;29.40;;;20.40;99.90;;;;;;4978318;28;20462;-60
2021/07/24 17:58:50;;;;;;;34.03;30.73;;;20.30;99.90;;;;;;4977339;28;20919;-60
2021/07/24 18:01:20;;;;;;;33.07;29.93;;;20.20;99.90;;;;;;4976128;28;20458;-60
2021/07/24 18:03:48;;;;;;;34.53;31.30;;;20.10;99.90;;;;;;4969357;28;20481;-60
2021/07/24 18:06:25;;;;;;;36.30;32.70;;;20.00;99.90;;;;;;4975372;28;20462;-60
2021/07/24 18:08:54;;;;;;;36.07;32.50;;;19.90;99.90;;;;;;4970902;28;20474;-60
2021/07/24 18:11:25;;;;;;;36.27;32.47;;;20.00;99.90;;;;;;4975471;28;20608;-60
2021/07/24 18:13:56;;;;;;;34.00;30.60;;;19.90;99.90;;;;;;4976786;28;20489;-60
2021/07/24 18:16:33;;;;;;;34.80;31.23;;;19.90;99.90;;;;;;4978115;28;20467;-60
2021/07/24 18:19:00;;;;;;;33.90;30.40;;;19.90;99.90;;;;;;4978780;28;20753;-60
2021/07/24 18:21:27;;;;;;;34.17;30.67;;;19.90;99.90;;;;;;4978534;28;20520;-60
2021/07/24 18:23:55;;;;;;;32.60;29.70;;;19.90;99.90;;;;;;4977363;28;20469;-60
2021/07/24 18:26:22;;;;;;;35.77;32.27;;;19.90;99.90;;;;;;4978141;28;20444;-59
2021/07/24 18:28:51;;;;;;;35.83;32.50;;;19.90;99.90;;;;;;4977955;28;20454;-60
2021/07/24 18:31:18;;;;;;;37.07;33.23;;;19.80;99.90;;;;;;4978081;28;20981;-60
2021/07/24 18:33:47;;;;;;;34.00;30.73;;;19.80;99.90;;;;;;4978137;28;20457;-60
2021/07/24 18:36:14;;;;;;;36.30;32.87;;;19.70;99.90;;;;;;4977492;28;20468;-60
2021/07/24 18:38:41;;;;;;;35.23;31.63;;;19.70;99.90;;;;;;4976594;28;20911;-60
2021/07/24 18:41:11;;;;;;;36.30;32.70;;;19.70;99.90;;;;;;4977722;28;20449;-60
2021/07/24 18:43:38;;;;;;;34.97;31.67;;;19.60;99.90;;;;;;4977360;28;20458;-60
2021/07/24 18:46:07;;;;;;;37.40;33.90;;;19.50;99.90;;;;;;4976818;28;20469;-60
2021/07/24 18:48:34;;;;;;;34.67;31.23;;;19.50;99.90;;;;;;4977456;28;20501;-60
2021/07/24 18:51:07;;;;;;;34.90;31.53;;;19.50;99.90;;;;;;4978097;28;20501;-60
2021/07/24 18:53:35;;;;;;;35.90;32.53;;;19.50;99.90;;;;;;5221873;23;21578;-59
2021/07/24 18:56:02;;;;;;;37.33;33.30;;;19.50;99.90;;;;;;4972286;28;20469;-60
2021/07/24 18:58:34;;;;;;;39.07;35.07;;;19.50;99.90;;;;;;4977719;28;20805;-60
2021/07/24 19:01:04;;;;;;;35.47;32.07;;;19.50;99.90;;;;;;4977507;28;20454;-60
2021/07/24 19:03:32;;;;;;;35.57;32.10;;;19.50;99.90;;;;;;4971953;28;20473;-60
2021/07/24 19:05:59;;;;;;;35.00;31.40;;;19.40;99.90;;;;;;4975689;28;20474;-60
2021/07/24 19:08:33;;;;;;;36.00;32.53;;;19.40;99.90;;;;;;4976138;28;20741;-60
2021/07/24 19:11:00;;;;;;;36.07;32.50;;;19.30;99.90;;;;;;4976831;28;20496;-60
2021/07/24 19:13:30;;;;;;;34.57;31.20;;;19.30;99.90;;;;;;4976818;28;20828;-60
2021/07/24 19:15:59;;;;;;;34.10;30.83;;;19.30;99.90;;;;;;4977035;28;20488;-60
2021/07/24 19:18:32;;;;;;;36.07;32.30;;;19.30;99.90;;;;;;4976129;28;20905;-60
2021/07/24 19:21:01;;;;;;;34.93;31.67;;;19.30;99.90;;;;;;4974059;28;20458;-60
2021/07/24 19:23:28;;;;;;;35.60;31.93;;;19.20;99.90;;;;;;4978202;28;20870;-60
2021/07/24 19:25:56;;;;;;;35.43;32.13;;;19.20;99.90;;;;;;4978108;28;20465;-60
2021/07/24 19:28:23;;;;;;;35.43;31.90;;;19.20;99.90;;;;;;4977601;28;20871;-60
2021/07/24 19:30:52;;;;;;;34.00;30.80;;;19.10;99.90;;;;;;4977280;28;20490;-60
2021/07/24 19:33:19;;;;;;;34.13;30.93;;;19.10;99.90;;;;;;4977630;28;20465;-60
2021/07/24 19:35:46;;;;;;;36.70;32.90;;;19.00;99.90;;;;;;4980419;28;20454;-60
2021/07/24 19:38:16;;;;;;;36.70;33.03;;;19.00;99.90;;;;;;4981046;28;20487;-60
2021/07/24 19:40:44;;;;;;;38.23;34.43;;;18.90;99.90;;;;;;4981377;28;20469;-60
2021/07/24 19:43:13;;;;;;;39.00;35.10;;;18.90;99.90;;;;;;4981184;28;20540;-60
2021/07/24 19:45:42;;;;;;;38.53;34.77;;;18.80;99.90;;;;;;4981028;28;20453;-60
2021/07/24 19:48:10;;;;;;;39.47;35.67;;;18.80;99.90;;;;;;4980504;28;20509;-60
2021/07/24 19:50:37;;;;;;;35.67;31.93;;;18.80;99.90;;;;;;4980497;28;20504;-60
2021/07/24 19:53:04;;;;;;;36.93;33.27;;;18.80;99.90;;;;;;4976415;28;20770;-60
2021/07/24 19:55:34;;;;;;;37.83;34.03;;;18.90;99.90;;;;;;4967680;28;20604;-60
2021/07/24 19:58:04;;;;;;;35.20;31.60;;;18.90;99.90;;;;;;4961842;29;20768;-60
2021/07/24 20:00:35;;;;;;;35.70;32.40;;;18.80;99.90;;;;;;4970523;28;20466;-60
2021/07/24 20:03:02;;;;;;;33.00;29.70;;;18.80;99.90;;;;;;4974970;28;20482;-60
2021/07/24 20:05:31;;;;;;;34.87;31.20;;;18.80;99.90;;;;;;4977535;28;20477;-60
2021/07/24 20:07:58;;;;;;;34.70;31.30;;;18.70;99.90;;;;;;4980841;28;20463;-60
2021/07/24 20:10:31;;;;;;;35.60;32.00;;;18.70;99.90;;;;;;4980102;28;20785;-60